Etusivu
METAR-TAF:

METAR-TAF

Lentoasemat :

Vlissingen, Alankomaat

Leveyspiiri: 51-27N, Pituuspiiri: 3-36E, korkeus merenpinnasta: 10 m

Tämänhetkinen sää

Tämä raportti tehtiin 43 minuuttia sitten, kello 00.25 UTC
Tuuli 15 kn etelästä
Lämpötila 13°C
Kosteus 82%
Ilmanpaine 1004 hPa
Näkyvyys 10 km tai enemmän

METAR: EHFS 090025Z AUTO 17015KT 9999 NCD 13/10 Q1004

Aika: 03:08 (01:08 UTC)


TAF: puuttuu

Säähavainnot ja -ennusteet yli 4000 lentoasemalta (METAR- ja TAF-raportit).

Käytössä olevat sääasemat on merkitty karttaan keltaisilla ja punaisilla pisteillä.

Aseta hiiri pisteen päälle nähdäksesi sääaseman nimen.

Klikkaa sitten nähdäksesi säähavainnot ja -ennusteet.

Kartan vaihtaminen: klikkaa mustalla rastilla varustettuja vihreitä pisteitä, niin voit zoomata sisään; viivalla varustettua vihreää pistettä, niin voit zoomata ulos tai vihreitä nuolia, niin pääset viereisille kartoille.


METAR-TAF: